createdAt,value
2023-02-02T00:00:32.353Z,100981.00
2023-02-02T00:03:05.168Z,100979.00
2023-02-02T00:05:38.173Z,100981.00
2023-02-02T00:08:11.168Z,100973.00
2023-02-02T00:10:46.671Z,100964.00
2023-02-02T00:13:19.480Z,100961.00
2023-02-02T00:15:52.301Z,100969.00
2023-02-02T00:18:25.017Z,100963.00
2023-02-02T00:20:57.910Z,100961.00
2023-02-02T00:23:30.802Z,100962.00
2023-02-02T00:26:03.572Z,100964.00
2023-02-02T00:28:37.882Z,100960.00
2023-02-02T00:31:10.774Z,100955.00
2023-02-02T00:33:43.956Z,100961.00
2023-02-02T00:36:16.990Z,100958.00
2023-02-02T00:38:50.991Z,100952.00
2023-02-02T00:41:23.968Z,100960.00
2023-02-02T00:44:13.812Z,100960.00
2023-02-02T00:46:47.146Z,100962.00
2023-02-02T00:49:20.117Z,100955.00
2023-02-02T00:51:53.013Z,100953.00
2023-02-02T00:54:25.966Z,100953.00
2023-02-02T00:56:58.954Z,100959.00
2023-02-02T00:59:32.093Z,100947.00
2023-02-02T01:02:05.051Z,100952.00
2023-02-02T01:04:37.756Z,100949.00
2023-02-02T01:07:10.702Z,100951.00
2023-02-02T01:09:43.531Z,100942.00
2023-02-02T01:12:16.228Z,100948.00
2023-02-02T01:14:49.132Z,100943.00
2023-02-02T01:17:21.923Z,100948.00
2023-02-02T01:19:54.885Z,100948.00
2023-02-02T01:22:27.566Z,100956.00
2023-02-02T01:25:00.469Z,100945.00
2023-02-02T01:27:33.312Z,100946.00
2023-02-02T01:30:06.238Z,100952.00
2023-02-02T01:32:39.602Z,100946.00
2023-02-02T01:35:13.067Z,100945.00
2023-02-02T01:37:45.978Z,100948.00
2023-02-02T01:40:19.184Z,100944.00
2023-02-02T01:42:52.235Z,100948.00
2023-02-02T01:45:30.004Z,100942.00
2023-02-02T01:48:03.815Z,100938.00
2023-02-02T01:50:38.181Z,100945.00
2023-02-02T01:53:12.338Z,100943.00
2023-02-02T01:55:45.967Z,100950.00
2023-02-02T01:58:29.521Z,100942.00
2023-02-02T02:01:02.477Z,100949.00
2023-02-02T02:03:37.617Z,100943.00
2023-02-02T02:06:12.413Z,100946.00
2023-02-02T02:08:54.217Z,100941.00
2023-02-02T02:11:28.051Z,100952.00
2023-02-02T02:14:20.924Z,100947.00
2023-02-02T02:17:16.598Z,100943.00
2023-02-02T02:20:34.383Z,100941.00
2023-02-02T02:23:42.493Z,100932.00
2023-02-02T02:26:39.561Z,100934.00
2023-02-02T02:29:14.228Z,100934.00
2023-02-02T02:32:07.911Z,100930.00
2023-02-02T02:34:46.460Z,100933.00
2023-02-02T02:37:24.164Z,100934.00
2023-02-02T02:40:26.150Z,100929.00
2023-02-02T02:43:02.202Z,100926.00
2023-02-02T02:45:35.654Z,100926.00
2023-02-02T02:48:08.724Z,100925.00
2023-02-02T02:50:45.728Z,100925.00
2023-02-02T02:53:23.556Z,100921.00
2023-02-02T02:56:06.955Z,100922.00
2023-02-02T02:58:47.756Z,100920.00
2023-02-02T03:01:22.764Z,100924.00
2023-02-02T03:03:57.924Z,100914.00
2023-02-02T03:06:47.452Z,100911.00
2023-02-02T03:09:32.010Z,100908.00
2023-02-02T03:12:05.180Z,100911.00
2023-02-02T03:14:44.638Z,100896.00
2023-02-02T03:17:17.735Z,100897.00
2023-02-02T03:19:50.924Z,100899.00
2023-02-02T03:22:24.790Z,100914.00
2023-02-02T03:24:58.810Z,100907.00
2023-02-02T03:27:32.690Z,100911.00
2023-02-02T03:30:05.728Z,100914.00
2023-02-02T03:32:42.971Z,100909.00
2023-02-02T03:35:15.936Z,100917.00
2023-02-02T03:37:49.634Z,100926.00
2023-02-02T03:40:25.176Z,100931.00
2023-02-02T03:42:58.177Z,100932.00
2023-02-02T03:45:31.927Z,100933.00
2023-02-02T03:48:06.084Z,100925.00
2023-02-02T03:50:40.267Z,100922.00
2023-02-02T03:53:12.972Z,100932.00
2023-02-02T03:55:45.802Z,100937.00
2023-02-02T03:58:19.340Z,100924.00
2023-02-02T04:00:52.325Z,100923.00
2023-02-02T04:03:25.050Z,100919.00
2023-02-02T04:05:58.030Z,100927.00
2023-02-02T04:08:30.681Z,100920.00
2023-02-02T04:11:03.643Z,100930.00
2023-02-02T04:13:36.803Z,100918.00
2023-02-02T04:16:09.866Z,100924.00
2023-02-02T04:18:42.696Z,100923.00
2023-02-02T04:21:15.599Z,100921.00
2023-02-02T04:23:48.344Z,100922.00
2023-02-02T04:26:21.070Z,100920.00
2023-02-02T04:28:53.729Z,100916.00
2023-02-02T04:31:26.598Z,100921.00
2023-02-02T04:33:59.644Z,100916.00
2023-02-02T04:36:33.311Z,100916.00
2023-02-02T04:39:06.041Z,100917.00
2023-02-02T04:41:39.005Z,100907.00
2023-02-02T04:44:14.053Z,100900.00
2023-02-02T04:46:47.202Z,100924.00
2023-02-02T04:49:20.183Z,100913.00
2023-02-02T04:51:53.009Z,100912.00
2023-02-02T04:54:29.829Z,100906.00
2023-02-02T04:57:02.689Z,100914.00
2023-02-02T04:59:35.701Z,100923.00
2023-02-02T05:02:08.527Z,100923.00
2023-02-02T05:04:41.639Z,100911.00
2023-02-02T05:07:14.666Z,100918.00
2023-02-02T05:09:47.522Z,100915.00
2023-02-02T05:12:20.626Z,100911.00
2023-02-02T05:14:53.344Z,100927.00
2023-02-02T05:17:26.221Z,100919.00
2023-02-02T05:19:59.044Z,100909.00
2023-02-02T05:22:32.066Z,100911.00
2023-02-02T05:25:05.316Z,100880.00
2023-02-02T05:27:38.451Z,100879.00
2023-02-02T05:30:12.635Z,100888.00
2023-02-02T05:32:45.944Z,100889.00
2023-02-02T05:35:19.314Z,100902.00
2023-02-02T05:37:52.879Z,100904.00
2023-02-02T05:40:25.781Z,100902.00
2023-02-02T05:42:58.795Z,100914.00
2023-02-02T05:45:31.603Z,100905.00
2023-02-02T05:48:04.365Z,100909.00
2023-02-02T05:50:37.114Z,100910.00
2023-02-02T05:53:09.983Z,100906.00
2023-02-02T05:55:42.690Z,100925.00
2023-02-02T05:58:15.461Z,100935.00
2023-02-02T06:00:48.435Z,100957.00
2023-02-02T06:03:21.356Z,100945.00
2023-02-02T06:05:55.465Z,100958.00
2023-02-02T06:08:28.336Z,100963.00
2023-02-02T06:11:01.056Z,100963.00
2023-02-02T06:13:34.292Z,100971.00
2023-02-02T06:16:07.003Z,100974.00
2023-02-02T06:18:39.931Z,100978.00
2023-02-02T06:21:13.314Z,100973.00
2023-02-02T06:23:47.551Z,100977.00
2023-02-02T06:26:21.016Z,100985.00
2023-02-02T06:28:55.403Z,100985.00
2023-02-02T06:31:28.296Z,100989.00
2023-02-02T06:34:01.838Z,100987.00
2023-02-02T06:36:35.148Z,100985.00
2023-02-02T06:39:09.872Z,100991.00
2023-02-02T06:41:42.902Z,100990.00
2023-02-02T06:44:17.191Z,100985.00
2023-02-02T06:46:50.245Z,100987.00
2023-02-02T06:49:23.158Z,100999.00
2023-02-02T06:51:55.817Z,100997.00
2023-02-02T06:54:28.751Z,101006.00
2023-02-02T06:57:01.630Z,101013.00
2023-02-02T06:59:34.532Z,101013.00
2023-02-02T07:02:11.852Z,101029.00
2023-02-02T07:04:45.456Z,101028.00
2023-02-02T07:07:18.388Z,101023.00
2023-02-02T07:09:58.212Z,101025.00
2023-02-02T07:12:30.557Z,101029.00
2023-02-02T07:15:03.622Z,101028.00
2023-02-02T07:17:36.783Z,101027.00
2023-02-02T07:20:10.302Z,101027.00
2023-02-02T07:22:46.291Z,101028.00
2023-02-02T07:25:19.455Z,101026.00
2023-02-02T07:27:53.237Z,101023.00
2023-02-02T07:30:27.331Z,101023.00
2023-02-02T07:33:02.952Z,101032.00
2023-02-02T07:35:36.002Z,101044.00
2023-02-02T07:38:08.898Z,101033.00
2023-02-02T07:40:42.173Z,101033.00
2023-02-02T07:43:15.076Z,101040.00
2023-02-02T07:45:48.140Z,101043.00
2023-02-02T07:48:21.365Z,101060.00
2023-02-02T07:50:54.145Z,101051.00
2023-02-02T07:53:27.050Z,101046.00
2023-02-02T07:56:10.374Z,101052.00
2023-02-02T07:58:43.544Z,101058.00
2023-02-02T08:01:17.938Z,101058.00
2023-02-02T08:03:51.040Z,101058.00
2023-02-02T08:06:30.104Z,101062.00
2023-02-02T08:09:04.242Z,101066.00
2023-02-02T08:11:37.277Z,101055.00
2023-02-02T08:14:10.974Z,101074.00
2023-02-02T08:16:43.835Z,101086.00
2023-02-02T08:19:16.905Z,101083.00
2023-02-02T08:21:49.856Z,101079.00
2023-02-02T08:24:22.710Z,101089.00
2023-02-02T08:26:55.532Z,101104.00
2023-02-02T08:29:28.540Z,101100.00
2023-02-02T08:32:02.063Z,101095.00
2023-02-02T08:34:36.119Z,101096.00
2023-02-02T08:37:09.517Z,101093.00
2023-02-02T08:39:42.475Z,101102.00
2023-02-02T08:42:15.668Z,101094.00
2023-02-02T08:46:01.898Z,101096.00
2023-02-02T08:47:26.803Z,101109.00
2023-02-02T08:50:00.524Z,101102.00
2023-02-02T08:52:38.105Z,101108.00
2023-02-02T08:55:11.302Z,101113.00
2023-02-02T08:57:44.246Z,101106.00
2023-02-02T09:00:20.691Z,101113.00
2023-02-02T09:02:54.738Z,101105.00
2023-02-02T09:05:27.939Z,101121.00
2023-02-02T09:08:01.222Z,101127.00
2023-02-02T09:10:38.218Z,101127.00
2023-02-02T09:13:10.895Z,101139.00
2023-02-02T09:15:43.888Z,101139.00
2023-02-02T09:18:16.716Z,101137.00
2023-02-02T09:20:49.636Z,101136.00
2023-02-02T09:23:22.929Z,101142.00
2023-02-02T09:25:55.652Z,101143.00
2023-02-02T09:28:28.265Z,101154.00
2023-02-02T09:31:02.306Z,101156.00
2023-02-02T09:33:35.323Z,101161.00
2023-02-02T09:36:18.749Z,101153.00
2023-02-02T09:38:54.354Z,101158.00
2023-02-02T09:41:44.589Z,101147.00
2023-02-02T09:44:43.834Z,101144.00
2023-02-02T09:47:21.589Z,101145.00
2023-02-02T09:50:07.982Z,101146.00
2023-02-02T09:52:45.839Z,101150.00
2023-02-02T09:55:32.226Z,101149.00
2023-02-02T09:58:06.733Z,101150.00
2023-02-02T10:00:44.301Z,101152.00
2023-02-02T10:03:38.730Z,101149.00
2023-02-02T10:06:22.509Z,101150.00
2023-02-02T10:09:12.311Z,101152.00
2023-02-02T10:11:52.885Z,101145.00
2023-02-02T10:14:27.926Z,101156.00
2023-02-02T10:17:03.200Z,101152.00
2023-02-02T10:19:37.200Z,101149.00
2023-02-02T10:22:16.017Z,101148.00
2023-02-02T10:24:49.170Z,101154.00
2023-02-02T10:27:23.748Z,101157.00
2023-02-02T10:30:04.460Z,101156.00
2023-02-02T10:32:43.054Z,101158.00
2023-02-02T10:35:37.097Z,101151.00
2023-02-02T10:38:20.812Z,101144.00
2023-02-02T10:41:17.467Z,101140.00
2023-02-02T10:44:14.365Z,101145.00
2023-02-02T10:46:53.202Z,101149.00
2023-02-02T10:49:27.935Z,101152.00
2023-02-02T10:52:02.774Z,101143.00
2023-02-02T10:54:54.907Z,101145.00
2023-02-02T10:57:16.044Z,101145.00
2023-02-02T11:00:08.966Z,101154.00
2023-02-02T11:02:41.987Z,101148.00
2023-02-02T11:05:36.416Z,101145.00
2023-02-02T11:08:20.250Z,101144.00
2023-02-02T11:10:54.788Z,101150.00
2023-02-02T11:13:35.679Z,101146.00
2023-02-02T11:16:22.681Z,101152.00
2023-02-02T11:18:55.785Z,101155.00
2023-02-02T11:21:33.576Z,101153.00
2023-02-02T11:24:11.800Z,101150.00
2023-02-02T11:26:59.944Z,101161.00
2023-02-02T11:29:34.745Z,101157.00
2023-02-02T11:32:30.237Z,101158.00
2023-02-02T11:35:19.955Z,101169.00
2023-02-02T11:38:09.133Z,101161.00
2023-02-02T11:40:44.004Z,101158.00
2023-02-02T11:43:35.270Z,101150.00
2023-02-02T11:46:10.402Z,101156.00
2023-02-02T11:48:48.519Z,101158.00
2023-02-02T11:51:25.921Z,101161.00
2023-02-02T11:54:18.939Z,101157.00
2023-02-02T11:56:57.025Z,101147.00
2023-02-02T11:59:35.502Z,101159.00
2023-02-02T12:02:26.905Z,101152.00
2023-02-02T12:05:07.284Z,101147.00
2023-02-02T12:07:40.299Z,101145.00
2023-02-02T12:10:34.013Z,101145.00
2023-02-02T12:13:15.629Z,101145.00
2023-02-02T12:16:02.277Z,101139.00
2023-02-02T12:18:58.216Z,101146.00
2023-02-02T12:22:03.343Z,101141.00
2023-02-02T12:24:41.765Z,101148.00
2023-02-02T12:27:35.206Z,101150.00
2023-02-02T12:30:18.771Z,101142.00
2023-02-02T12:33:15.123Z,101149.00
2023-02-02T12:36:04.808Z,101144.00
2023-02-02T12:38:48.754Z,101142.00
2023-02-02T12:41:35.481Z,101150.00
2023-02-02T12:44:16.471Z,101143.00
2023-02-02T12:47:11.980Z,101151.00
2023-02-02T12:50:11.389Z,101154.00
2023-02-02T12:53:16.411Z,101162.00
2023-02-02T12:56:00.356Z,101163.00
2023-02-02T12:58:44.514Z,101161.00
2023-02-02T13:01:41.963Z,101160.00
2023-02-02T13:04:28.732Z,101153.00
2023-02-02T13:07:12.328Z,101165.00
2023-02-02T13:10:10.068Z,101161.00
2023-02-02T13:12:47.801Z,101165.00
2023-02-02T13:15:23.949Z,101159.00
2023-02-02T13:18:01.105Z,101162.00
2023-02-02T13:20:41.470Z,101161.00
2023-02-02T13:23:20.070Z,101157.00
2023-02-02T13:25:55.281Z,101169.00
2023-02-02T13:28:44.972Z,101171.00
2023-02-02T13:31:19.870Z,101161.00
2023-02-02T13:33:54.637Z,101174.00
2023-02-02T13:36:30.567Z,101157.00
2023-02-02T13:39:05.211Z,101166.00
2023-02-02T13:41:39.492Z,101166.00
2023-02-02T13:44:14.718Z,101156.00
2023-02-02T13:46:54.778Z,101164.00
2023-02-02T13:49:35.685Z,101161.00
2023-02-02T13:52:34.295Z,101163.00
2023-02-02T13:55:24.013Z,101166.00
2023-02-02T13:58:30.463Z,101166.00
2023-02-02T14:01:05.239Z,101146.00
2023-02-02T14:03:45.364Z,101158.00
2023-02-02T14:06:20.423Z,101153.00
2023-02-02T14:09:04.284Z,101150.00
2023-02-02T14:11:44.354Z,101150.00
2023-02-02T14:14:41.051Z,101159.00
2023-02-02T14:17:21.811Z,101146.00
2023-02-02T14:19:59.425Z,101149.00
2023-02-02T14:22:53.381Z,101146.00
2023-02-02T14:25:40.577Z,101146.00
2023-02-02T14:28:17.068Z,101134.00
2023-02-02T14:30:51.851Z,101142.00
2023-02-02T14:33:29.774Z,101129.00
2023-02-02T14:36:04.448Z,101129.00
2023-02-02T14:38:59.637Z,101129.00
2023-02-02T14:42:03.562Z,101116.00
2023-02-02T14:44:37.872Z,101108.00
2023-02-02T14:47:12.897Z,101116.00
2023-02-02T14:49:45.724Z,101117.00
2023-02-02T14:52:20.368Z,101113.00
2023-02-02T14:54:57.352Z,101107.00
2023-02-02T14:57:36.491Z,101110.00
2023-02-02T15:00:14.588Z,101105.00
2023-02-02T15:02:47.579Z,101114.00
2023-02-02T15:05:38.505Z,101114.00
2023-02-02T15:08:28.116Z,101113.00
2023-02-02T15:11:03.324Z,101108.00
2023-02-02T15:13:40.949Z,101110.00
2023-02-02T15:16:15.824Z,101114.00
2023-02-02T15:18:53.245Z,101107.00
2023-02-02T15:21:27.438Z,101104.00
2023-02-02T15:24:01.107Z,101109.00
2023-02-02T15:26:35.916Z,101111.00
2023-02-02T15:29:13.434Z,101107.00
2023-02-02T15:31:48.014Z,101106.00
2023-02-02T15:34:23.959Z,101104.00
2023-02-02T15:37:01.889Z,101106.00
2023-02-02T15:39:43.179Z,101088.00
2023-02-02T15:42:43.785Z,101105.00
2023-02-02T15:45:44.192Z,101093.00
2023-02-02T15:48:34.102Z,101106.00
2023-02-02T15:51:08.789Z,101114.00
2023-02-02T15:53:46.613Z,101106.00
2023-02-02T15:56:33.756Z,101110.00
2023-02-02T15:59:07.009Z,101108.00
2023-02-02T16:01:41.852Z,101118.00
2023-02-02T16:04:28.515Z,101115.00
2023-02-02T16:07:01.880Z,101127.00
2023-02-02T16:09:36.672Z,101122.00
2023-02-02T16:12:15.108Z,101135.00
2023-02-02T16:14:52.907Z,101128.00
2023-02-02T16:17:37.262Z,101128.00
2023-02-02T16:20:15.439Z,101140.00
2023-02-02T16:22:49.040Z,101147.00
2023-02-02T16:25:23.966Z,101151.00
2023-02-02T16:27:57.250Z,101150.00
2023-02-02T16:30:35.051Z,101153.00
2023-02-02T16:33:34.357Z,101145.00
2023-02-02T16:36:12.791Z,101148.00
2023-02-02T16:38:43.064Z,101151.00
2023-02-02T16:41:29.775Z,101144.00
2023-02-02T16:44:23.377Z,101164.00
2023-02-02T16:46:58.284Z,101155.00
2023-02-02T16:49:31.974Z,101152.00
2023-02-02T16:52:21.864Z,101161.00
2023-02-02T16:54:59.540Z,101166.00
2023-02-02T16:57:34.633Z,101164.00
2023-02-02T17:00:09.545Z,101169.00
2023-02-02T17:02:44.109Z,101166.00
2023-02-02T17:05:31.188Z,101163.00
2023-02-02T17:08:06.593Z,101167.00
2023-02-02T17:10:44.528Z,101164.00
2023-02-02T17:13:36.721Z,101165.00
2023-02-02T17:16:10.740Z,101171.00
2023-02-02T17:18:43.754Z,101159.00
2023-02-02T17:21:24.685Z,101146.00
2023-02-02T17:23:58.255Z,101153.00
2023-02-02T17:26:34.231Z,101153.00
2023-02-02T17:29:07.783Z,101154.00
2023-02-02T17:31:41.244Z,101152.00
2023-02-02T17:34:18.204Z,101148.00
2023-02-02T17:36:51.106Z,101156.00
2023-02-02T17:39:23.912Z,101149.00
2023-02-02T17:41:58.334Z,101156.00
2023-02-02T17:44:30.991Z,101161.00
2023-02-02T17:47:04.007Z,101152.00
2023-02-02T17:49:37.044Z,101163.00
2023-02-02T17:52:09.897Z,101174.00
2023-02-02T17:54:42.846Z,101175.00
2023-02-02T17:57:15.874Z,101174.00
2023-02-02T17:59:48.914Z,101189.00
2023-02-02T18:02:22.058Z,101198.00
2023-02-02T18:04:54.879Z,101196.00
2023-02-02T18:07:27.798Z,101196.00
2023-02-02T18:10:00.627Z,101196.00
2023-02-02T18:12:34.675Z,101202.00
2023-02-02T18:15:08.803Z,101205.00
2023-02-02T18:17:42.048Z,101219.00
2023-02-02T18:20:17.444Z,101225.00
2023-02-02T18:22:50.701Z,101230.00
2023-02-02T18:25:24.155Z,101232.00
2023-02-02T18:27:57.728Z,101229.00
2023-02-02T18:30:30.405Z,101232.00
2023-02-02T18:33:03.426Z,101232.00
2023-02-02T18:35:36.472Z,101248.00
2023-02-02T18:38:09.350Z,101245.00
2023-02-02T18:40:42.118Z,101243.00
2023-02-02T18:43:15.062Z,101238.00
2023-02-02T18:45:47.944Z,101242.00
2023-02-02T18:48:21.638Z,101249.00
2023-02-02T18:50:54.709Z,101243.00
2023-02-02T18:53:27.725Z,101253.00
2023-02-02T18:56:00.852Z,101245.00
2023-02-02T18:58:34.057Z,101244.00
2023-02-02T19:01:15.131Z,101242.00
2023-02-02T19:03:53.092Z,101240.00
2023-02-02T19:06:44.442Z,101240.00
2023-02-02T19:09:18.520Z,101243.00
2023-02-02T19:11:53.061Z,101246.00
2023-02-02T19:14:33.417Z,101243.00
2023-02-02T19:17:14.122Z,101240.00
2023-02-02T19:19:47.001Z,101248.00
2023-02-02T19:22:28.603Z,101248.00
2023-02-02T19:25:02.325Z,101251.00
2023-02-02T19:27:36.642Z,101266.00
2023-02-02T19:30:11.335Z,101270.00
2023-02-02T19:32:44.310Z,101274.00
2023-02-02T19:35:22.248Z,101273.00
2023-02-02T19:37:57.202Z,101273.00
2023-02-02T19:40:30.334Z,101273.00
2023-02-02T19:43:18.616Z,101283.00
2023-02-02T19:45:51.563Z,101278.00
2023-02-02T19:48:33.292Z,101287.00
2023-02-02T19:51:07.999Z,101289.00
2023-02-02T19:53:41.996Z,101287.00
2023-02-02T19:56:29.005Z,101294.00
2023-02-02T19:59:02.530Z,101295.00
2023-02-02T20:01:37.619Z,101305.00
2023-02-02T20:04:12.760Z,101307.00
2023-02-02T20:06:58.092Z,101311.00
2023-02-02T20:09:25.762Z,101305.00
2023-02-02T20:12:01.132Z,101300.00
2023-02-02T20:14:39.591Z,101311.00
2023-02-02T20:17:17.334Z,101325.00
2023-02-02T20:19:51.083Z,101316.00
2023-02-02T20:22:32.112Z,101311.00
2023-02-02T20:25:07.189Z,101319.00
2023-02-02T20:27:41.313Z,101319.00
2023-02-02T20:30:22.275Z,101316.00
2023-02-02T20:32:58.293Z,101313.00
2023-02-02T20:35:38.938Z,101315.00
2023-02-02T20:38:39.169Z,101315.00
2023-02-02T20:41:12.075Z,101312.00
2023-02-02T20:43:46.376Z,101316.00
2023-02-02T20:46:19.906Z,101310.00
2023-02-02T20:48:52.865Z,101319.00
2023-02-02T20:51:30.837Z,101312.00
2023-02-02T20:54:03.794Z,101323.00
2023-02-02T20:56:40.768Z,101327.00
2023-02-02T20:59:13.620Z,101328.00
2023-02-02T21:01:46.374Z,101343.00
2023-02-02T21:04:19.187Z,101339.00
2023-02-02T21:06:52.464Z,101349.00
2023-02-02T21:09:25.281Z,101338.00
2023-02-02T21:11:58.469Z,101333.00
2023-02-02T21:14:31.253Z,101348.00
2023-02-02T21:17:14.416Z,101350.00
2023-02-02T21:19:38.244Z,101362.00
2023-02-02T21:22:11.187Z,101349.00
2023-02-02T21:24:44.463Z,101349.00
2023-02-02T21:27:17.315Z,101352.00
2023-02-02T21:29:50.195Z,101363.00
2023-02-02T21:32:23.955Z,101359.00
2023-02-02T21:34:56.910Z,101365.00
2023-02-02T21:37:31.455Z,101372.00
2023-02-02T21:40:04.928Z,101372.00
2023-02-02T21:42:38.009Z,101375.00
2023-02-02T21:45:28.011Z,101374.00
2023-02-02T21:48:04.488Z,101380.00
2023-02-02T21:50:39.620Z,101372.00
2023-02-02T21:53:17.685Z,101374.00
2023-02-02T21:55:55.315Z,101377.00
2023-02-02T21:58:40.359Z,101366.00
2023-02-02T22:01:27.033Z,101361.00
2023-02-02T22:04:00.015Z,101372.00
2023-02-02T22:06:40.025Z,101360.00
2023-02-02T22:09:20.739Z,101372.00
2023-02-02T22:12:04.583Z,101376.00
2023-02-02T22:14:45.081Z,101350.00
2023-02-02T22:17:29.298Z,101367.00
2023-02-02T22:20:22.844Z,101362.00
2023-02-02T22:23:00.579Z,101367.00
2023-02-02T22:25:40.961Z,101366.00
2023-02-02T22:28:27.991Z,101357.00
2023-02-02T22:31:01.689Z,101376.00
2023-02-02T22:33:34.447Z,101365.00
2023-02-02T22:36:07.358Z,101377.00
2023-02-02T22:38:40.333Z,101365.00
2023-02-02T22:41:13.327Z,101375.00
2023-02-02T22:43:46.312Z,101374.00
2023-02-02T22:46:19.332Z,101378.00
2023-02-02T22:48:52.154Z,101383.00
2023-02-02T22:51:25.352Z,101376.00
2023-02-02T22:53:58.956Z,101382.00
2023-02-02T22:56:31.721Z,101385.00
2023-02-02T22:59:05.345Z,101390.00
2023-02-02T23:01:38.208Z,101386.00
2023-02-02T23:04:11.276Z,101390.00
2023-02-02T23:06:44.254Z,101381.00
2023-02-02T23:09:17.515Z,101380.00
2023-02-02T23:11:50.385Z,101387.00
2023-02-02T23:14:23.101Z,101388.00
2023-02-02T23:16:56.154Z,101389.00
2023-02-02T23:19:29.105Z,101396.00
2023-02-02T23:22:02.115Z,101402.00
2023-02-02T23:24:34.796Z,101394.00
2023-02-02T23:27:07.863Z,101395.00
2023-02-02T23:29:40.695Z,101393.00
2023-02-02T23:32:13.502Z,101385.00
2023-02-02T23:34:46.776Z,101391.00
2023-02-02T23:37:19.720Z,101390.00
2023-02-02T23:43:00.128Z,101388.00
2023-02-02T23:45:33.223Z,101378.00
2023-02-02T23:48:06.119Z,101369.00
2023-02-02T23:50:43.457Z,101376.00
2023-02-02T23:53:17.524Z,101380.00
2023-02-02T23:55:51.092Z,101382.00
2023-02-02T23:58:24.186Z,101383.00
